createdAt,value
2022-12-06T00:00:05.193Z,10.68
2022-12-06T00:02:34.536Z,10.02
2022-12-06T00:05:02.412Z,10.25
2022-12-06T00:07:31.049Z,10.90
2022-12-06T00:09:59.172Z,10.80
2022-12-06T00:12:28.058Z,9.95
2022-12-06T00:14:55.818Z,10.77
2022-12-06T00:17:24.468Z,10.75
2022-12-06T00:19:53.663Z,10.90
2022-12-06T00:22:21.471Z,10.73
2022-12-06T00:24:49.200Z,10.83
2022-12-06T00:27:16.895Z,11.32
2022-12-06T00:29:44.705Z,11.18
2022-12-06T00:32:19.100Z,11.35
2022-12-06T00:34:47.346Z,11.63
2022-12-06T00:37:16.603Z,11.90
2022-12-06T00:39:44.358Z,12.45
2022-12-06T00:42:12.113Z,11.68
2022-12-06T00:44:39.856Z,11.70
2022-12-06T00:47:07.633Z,11.80
2022-12-06T00:49:35.493Z,11.50
2022-12-06T00:52:03.203Z,12.10
2022-12-06T00:54:32.372Z,13.13
2022-12-06T00:57:00.192Z,12.25
2022-12-06T00:59:28.467Z,12.43
2022-12-06T01:01:56.197Z,12.88
2022-12-06T01:04:23.972Z,12.73
2022-12-06T01:06:51.690Z,13.02
2022-12-06T01:09:19.378Z,14.32
2022-12-06T01:11:48.472Z,13.50
2022-12-06T01:14:16.200Z,13.25
2022-12-06T01:16:43.886Z,12.40
2022-12-06T01:19:13.469Z,12.23
2022-12-06T01:21:41.082Z,13.48
2022-12-06T01:24:09.035Z,13.75
2022-12-06T01:26:37.304Z,13.85
2022-12-06T01:29:06.353Z,13.48
2022-12-06T01:31:38.599Z,13.13
2022-12-06T01:34:07.994Z,12.60
2022-12-06T01:36:35.664Z,11.98
2022-12-06T01:39:08.888Z,13.27
2022-12-06T01:41:36.470Z,12.30
2022-12-06T01:44:06.721Z,12.07
2022-12-06T01:46:36.130Z,13.10
2022-12-06T01:49:17.330Z,11.95
2022-12-06T01:51:48.500Z,11.90
2022-12-06T01:54:17.470Z,12.27
2022-12-06T01:56:45.271Z,11.88
2022-12-06T01:59:14.888Z,11.60
2022-12-06T02:01:42.897Z,11.23
2022-12-06T02:04:11.036Z,10.30
2022-12-06T02:06:40.603Z,10.50
2022-12-06T02:09:09.676Z,10.18
2022-12-06T02:11:37.733Z,9.68
2022-12-06T02:14:07.376Z,9.70
2022-12-06T02:16:51.183Z,9.70
2022-12-06T02:19:36.776Z,9.60
2022-12-06T02:22:09.973Z,9.63
2022-12-06T02:24:48.858Z,9.32
2022-12-06T02:27:38.283Z,10.02
2022-12-06T02:30:11.074Z,9.65
2022-12-06T02:32:44.411Z,9.98
2022-12-06T02:35:16.452Z,9.70
2022-12-06T02:37:47.756Z,9.88
2022-12-06T02:40:18.286Z,10.63
2022-12-06T02:42:48.479Z,10.20
2022-12-06T02:45:20.372Z,10.05
2022-12-06T02:47:51.223Z,10.20
2022-12-06T02:50:21.361Z,10.48
2022-12-06T02:52:52.431Z,10.50
2022-12-06T02:55:20.437Z,10.40
2022-12-06T02:57:49.961Z,9.93
2022-12-06T03:00:36.520Z,10.73
2022-12-06T03:03:30.813Z,11.18
2022-12-06T03:06:15.544Z,11.65
2022-12-06T03:08:50.654Z,11.23
2022-12-06T03:11:18.359Z,11.02
2022-12-06T03:13:53.029Z,11.02
2022-12-06T03:16:27.346Z,10.80
2022-12-06T03:19:00.027Z,11.15
2022-12-06T03:21:30.762Z,11.07
2022-12-06T03:23:59.343Z,10.65
2022-12-06T03:26:30.534Z,11.30
2022-12-06T03:28:59.800Z,12.10
2022-12-06T03:31:29.091Z,12.48
2022-12-06T03:34:01.204Z,10.80
2022-12-06T03:36:30.192Z,10.10
2022-12-06T03:39:00.122Z,9.95
2022-12-06T03:41:30.205Z,9.57
2022-12-06T03:43:59.011Z,9.35
2022-12-06T03:46:30.775Z,9.68
2022-12-06T03:49:02.877Z,10.07
2022-12-06T03:51:32.512Z,9.40
2022-12-06T03:54:01.567Z,9.60
2022-12-06T03:56:29.451Z,9.73
2022-12-06T03:58:57.197Z,11.10
2022-12-06T04:01:24.994Z,9.95
2022-12-06T04:03:52.952Z,9.57
2022-12-06T04:06:22.106Z,9.33
2022-12-06T04:08:49.839Z,10.00
2022-12-06T04:11:17.719Z,10.35
2022-12-06T04:13:45.494Z,10.07
2022-12-06T04:16:28.281Z,10.15
2022-12-06T04:18:57.257Z,9.40
2022-12-06T04:21:43.913Z,9.63
2022-12-06T04:24:11.980Z,8.60
2022-12-06T04:26:39.694Z,8.23
2022-12-06T04:29:24.725Z,8.57
2022-12-06T04:32:09.828Z,7.72
2022-12-06T04:34:55.109Z,7.78
2022-12-06T04:37:41.522Z,6.82
2022-12-06T04:40:10.028Z,6.90
2022-12-06T04:42:55.099Z,7.50
2022-12-06T04:45:22.975Z,8.52
2022-12-06T04:47:50.715Z,7.57
2022-12-06T04:50:18.513Z,7.20
2022-12-06T04:52:47.584Z,6.60
2022-12-06T04:55:15.871Z,6.72
2022-12-06T04:57:43.530Z,6.53
2022-12-06T05:00:12.142Z,7.03
2022-12-06T05:02:39.811Z,6.80
2022-12-06T05:05:08.510Z,6.20
2022-12-06T05:07:36.198Z,6.10
2022-12-06T05:10:06.058Z,6.10
2022-12-06T05:12:33.728Z,6.03
2022-12-06T05:15:01.464Z,5.75
2022-12-06T05:17:29.146Z,6.00
2022-12-06T05:19:56.923Z,6.20
2022-12-06T05:22:24.746Z,6.13
2022-12-06T05:24:52.393Z,5.57
2022-12-06T05:27:21.449Z,5.10
2022-12-06T05:29:49.319Z,5.10
2022-12-06T05:32:16.983Z,4.70
2022-12-06T05:34:44.607Z,4.85
2022-12-06T05:37:12.354Z,5.25
2022-12-06T05:39:40.028Z,5.50
2022-12-06T05:42:07.685Z,5.15
2022-12-06T05:44:37.069Z,5.68
2022-12-06T05:47:04.846Z,5.50
2022-12-06T05:49:32.532Z,5.38
2022-12-06T05:52:03.968Z,5.40
2022-12-06T05:54:32.052Z,5.10
2022-12-06T05:56:59.747Z,5.55
2022-12-06T05:59:27.669Z,5.87
2022-12-06T06:01:56.824Z,5.60
2022-12-06T06:04:24.709Z,6.15
2022-12-06T06:06:53.230Z,6.00
2022-12-06T06:09:21.305Z,5.60
2022-12-06T06:11:48.917Z,5.85
2022-12-06T06:14:16.681Z,6.50
2022-12-06T06:16:44.391Z,5.82
2022-12-06T06:19:13.579Z,6.63
2022-12-06T06:21:41.385Z,5.95
2022-12-06T06:24:09.430Z,6.33
2022-12-06T06:26:37.024Z,6.50
2022-12-06T06:29:04.766Z,6.40
2022-12-06T06:31:32.519Z,5.72
2022-12-06T06:34:00.185Z,5.90
2022-12-06T06:36:29.393Z,5.50
2022-12-06T06:38:58.796Z,5.72
2022-12-06T06:41:26.567Z,5.80
2022-12-06T06:43:54.297Z,5.95
2022-12-06T06:46:21.985Z,5.35
2022-12-06T06:48:49.725Z,5.67
2022-12-06T06:51:17.450Z,5.45
2022-12-06T06:53:46.599Z,5.50
2022-12-06T06:56:14.301Z,5.57
2022-12-06T06:58:42.114Z,5.80
2022-12-06T07:01:11.171Z,5.55
2022-12-06T07:03:39.353Z,5.68
2022-12-06T07:06:10.255Z,5.83
2022-12-06T07:08:39.038Z,5.68
2022-12-06T07:11:08.459Z,5.93
2022-12-06T07:13:37.843Z,5.25
2022-12-06T07:16:06.140Z,5.57
2022-12-06T07:18:34.057Z,5.22
2022-12-06T07:21:03.879Z,5.15
2022-12-06T07:23:33.036Z,4.63
2022-12-06T07:26:02.357Z,4.95
2022-12-06T07:28:31.537Z,4.88
2022-12-06T07:30:59.301Z,4.93
2022-12-06T07:33:26.975Z,4.50
2022-12-06T07:36:12.417Z,4.95
2022-12-06T07:38:41.528Z,4.80
2022-12-06T07:41:25.453Z,4.35
2022-12-06T07:44:13.482Z,4.83
2022-12-06T07:46:41.431Z,4.57
2022-12-06T07:49:09.757Z,5.20
2022-12-06T07:51:37.582Z,5.20
2022-12-06T07:54:06.268Z,5.05
2022-12-06T07:56:33.922Z,4.85
2022-12-06T07:59:03.077Z,5.55
2022-12-06T08:01:30.798Z,4.93
2022-12-06T08:04:00.256Z,4.75
2022-12-06T08:06:28.063Z,4.50
2022-12-06T08:08:55.714Z,4.70
2022-12-06T08:11:24.446Z,4.97
2022-12-06T08:13:52.168Z,4.80
2022-12-06T08:16:21.323Z,4.75
2022-12-06T08:18:49.132Z,4.22
2022-12-06T08:21:17.576Z,4.10
2022-12-06T08:23:45.343Z,4.50
2022-12-06T08:26:16.344Z,5.05
2022-12-06T08:28:44.077Z,5.22
2022-12-06T08:31:14.556Z,5.05
2022-12-06T08:33:43.700Z,4.45
2022-12-06T08:36:14.034Z,5.30
2022-12-06T08:38:42.130Z,4.97
2022-12-06T08:41:31.268Z,5.35
2022-12-06T08:44:00.220Z,5.18
2022-12-06T08:46:28.548Z,5.50
2022-12-06T08:48:57.788Z,4.68
2022-12-06T08:51:25.881Z,5.45
2022-12-06T08:53:55.252Z,5.40
2022-12-06T08:56:23.013Z,6.63
2022-12-06T08:58:51.364Z,6.47
2022-12-06T09:01:21.966Z,4.80
2022-12-06T09:03:49.831Z,5.80
2022-12-06T09:06:19.397Z,6.60
2022-12-06T09:08:47.671Z,6.93
2022-12-06T09:11:16.693Z,6.85
2022-12-06T09:13:44.817Z,7.07
2022-12-06T09:16:14.250Z,6.90
2022-12-06T09:18:42.036Z,6.50
2022-12-06T09:21:11.293Z,5.57
2022-12-06T09:23:40.594Z,5.43
2022-12-06T09:26:08.955Z,5.18
2022-12-06T09:28:38.165Z,5.40
2022-12-06T09:31:07.594Z,5.28
2022-12-06T09:33:35.797Z,4.83
2022-12-06T09:36:07.631Z,4.33
2022-12-06T09:38:37.193Z,4.55
2022-12-06T09:41:11.718Z,5.30
2022-12-06T09:43:49.692Z,4.45
2022-12-06T09:46:37.288Z,3.85
2022-12-06T09:49:30.689Z,4.05
2022-12-06T09:52:12.325Z,3.88
2022-12-06T09:54:52.618Z,4.70
2022-12-06T09:57:28.133Z,4.95
2022-12-06T10:00:04.445Z,4.07
2022-12-06T10:03:07.157Z,3.90
2022-12-06T10:05:48.101Z,3.10
2022-12-06T10:08:28.018Z,3.03
2022-12-06T10:11:02.728Z,3.20
2022-12-06T10:13:46.390Z,3.50
2022-12-06T10:16:21.492Z,4.20
2022-12-06T10:19:07.714Z,4.50
2022-12-06T10:21:42.943Z,4.20
2022-12-06T10:24:19.811Z,4.13
2022-12-06T10:26:50.857Z,4.20
2022-12-06T10:29:29.204Z,4.93
2022-12-06T10:31:59.362Z,4.35
2022-12-06T10:34:48.830Z,4.80
2022-12-06T10:37:24.011Z,4.53
2022-12-06T10:39:54.375Z,3.97
2022-12-06T10:42:30.924Z,3.85
2022-12-06T10:45:02.487Z,3.90
2022-12-06T10:47:33.221Z,4.10
2022-12-06T10:50:05.098Z,3.67
2022-12-06T10:52:39.861Z,3.90
2022-12-06T10:55:18.304Z,2.50
2022-12-06T10:57:50.906Z,1.97
2022-12-06T11:00:22.086Z,2.13
2022-12-06T11:02:56.319Z,1.58
2022-12-06T11:05:27.686Z,2.65
2022-12-06T11:08:00.299Z,2.60
2022-12-06T11:10:30.668Z,2.05
2022-12-06T11:13:02.017Z,2.20
2022-12-06T11:15:34.659Z,1.97
2022-12-06T11:18:05.707Z,2.00
2022-12-06T11:20:39.794Z,1.00
2022-12-06T11:23:12.692Z,1.17
2022-12-06T11:25:47.432Z,1.33
2022-12-06T11:28:22.675Z,1.30
2022-12-06T11:30:54.603Z,1.10
2022-12-06T11:33:28.196Z,1.10
2022-12-06T11:35:57.090Z,1.70
2022-12-06T11:38:25.050Z,1.48
2022-12-06T11:40:52.908Z,1.48
2022-12-06T11:43:25.432Z,1.40
2022-12-06T11:45:56.078Z,1.33
2022-12-06T11:48:25.632Z,2.53
2022-12-06T11:50:54.197Z,3.08
2022-12-06T11:53:25.329Z,2.83
2022-12-06T11:55:54.799Z,2.17
2022-12-06T11:58:28.083Z,2.20
2022-12-06T12:01:06.188Z,3.70
2022-12-06T12:03:35.630Z,1.67
2022-12-06T12:06:20.585Z,1.47
2022-12-06T12:08:53.612Z,1.50
2022-12-06T12:11:22.665Z,1.20
2022-12-06T12:13:52.653Z,1.15
2022-12-06T12:16:24.592Z,1.35
2022-12-06T12:18:56.169Z,2.03
2022-12-06T12:21:36.640Z,1.40
2022-12-06T12:24:05.393Z,1.10
2022-12-06T12:26:39.586Z,1.50
2022-12-06T12:29:17.079Z,1.50
2022-12-06T12:31:54.452Z,1.48
2022-12-06T12:34:23.495Z,1.40
2022-12-06T12:36:52.719Z,1.80
2022-12-06T12:39:29.667Z,1.50
2022-12-06T12:41:57.324Z,1.23
2022-12-06T12:44:42.462Z,1.50
2022-12-06T12:47:17.974Z,1.63
2022-12-06T12:50:00.762Z,3.17
2022-12-06T12:52:30.514Z,1.80
2022-12-06T12:55:03.107Z,2.03
2022-12-06T12:57:31.092Z,1.92
2022-12-06T12:59:59.102Z,2.40
2022-12-06T13:02:30.222Z,3.80
2022-12-06T13:07:50.787Z,1.92
2022-12-06T13:10:20.661Z,1.90
2022-12-06T13:12:51.988Z,1.75
2022-12-06T13:15:22.393Z,2.05
2022-12-06T13:17:59.286Z,2.03
2022-12-06T13:20:29.307Z,1.70
2022-12-06T13:23:00.199Z,1.70
2022-12-06T13:25:28.286Z,3.20
2022-12-06T13:28:03.685Z,2.90
2022-12-06T13:30:35.090Z,3.53
2022-12-06T13:33:07.009Z,2.77
2022-12-06T13:35:38.128Z,2.45
2022-12-06T13:38:26.713Z,3.92
2022-12-06T13:40:55.371Z,2.20
2022-12-06T13:43:59.160Z,2.33
2022-12-06T13:46:30.089Z,2.22
2022-12-06T13:49:03.424Z,1.75
2022-12-06T13:51:45.623Z,1.85
2022-12-06T13:54:37.077Z,1.80
2022-12-06T13:57:22.845Z,1.60
2022-12-06T13:59:50.765Z,1.70
2022-12-06T14:02:49.177Z,1.77
2022-12-06T14:08:38.158Z,2.40
2022-12-06T14:11:22.298Z,2.80
2022-12-06T14:14:01.330Z,2.42
2022-12-06T14:16:32.543Z,1.80
2022-12-06T14:19:00.372Z,1.90
2022-12-06T14:21:31.676Z,1.98
2022-12-06T14:24:00.815Z,1.92
2022-12-06T14:26:30.591Z,2.22
2022-12-06T14:29:00.072Z,2.22
2022-12-06T14:31:30.424Z,2.30
2022-12-06T14:33:58.706Z,2.20
2022-12-06T14:36:29.857Z,2.03
2022-12-06T14:39:02.061Z,2.22
2022-12-06T14:41:49.624Z,2.60
2022-12-06T14:44:19.243Z,2.85
2022-12-06T14:46:48.343Z,2.65
2022-12-06T14:49:37.912Z,2.88
2022-12-06T14:52:18.643Z,2.30
2022-12-06T14:54:48.348Z,2.25
2022-12-06T14:57:26.588Z,2.17
2022-12-06T15:03:00.834Z,2.53
2022-12-06T15:05:37.553Z,2.63
2022-12-06T15:08:32.756Z,3.15
2022-12-06T15:11:03.653Z,2.65
2022-12-06T15:13:30.481Z,2.60
2022-12-06T15:16:04.674Z,3.10
2022-12-06T15:18:34.360Z,2.60
2022-12-06T15:21:02.105Z,2.00
2022-12-06T15:23:35.898Z,1.90
2022-12-06T15:26:05.791Z,2.05
2022-12-06T15:28:35.557Z,2.10
2022-12-06T15:31:03.839Z,2.00
2022-12-06T15:33:31.810Z,2.15
2022-12-06T15:35:59.656Z,2.50
2022-12-06T15:38:27.412Z,2.30
2022-12-06T15:40:56.093Z,2.40
2022-12-06T15:43:30.275Z,2.60
2022-12-06T15:46:00.379Z,2.78
2022-12-06T15:48:28.577Z,2.28
2022-12-06T15:50:57.055Z,2.67
2022-12-06T15:53:25.916Z,2.80
2022-12-06T15:55:53.802Z,3.05
2022-12-06T15:58:22.841Z,3.53
2022-12-06T16:00:51.975Z,3.00
2022-12-06T16:03:19.742Z,5.25
2022-12-06T16:05:47.436Z,7.80
2022-12-06T16:08:15.167Z,15.13
2022-12-06T16:11:10.792Z,10.35
2022-12-06T16:13:31.455Z,11.82
2022-12-06T16:16:00.686Z,9.95
2022-12-06T16:18:28.552Z,16.25
2022-12-06T16:20:56.640Z,7.97
2022-12-06T16:24:11.853Z,9.60
2022-12-06T16:26:32.990Z,13.00
2022-12-06T16:29:01.833Z,9.98
2022-12-06T16:31:35.145Z,14.47
2022-12-06T16:34:06.130Z,11.73
2022-12-06T16:36:34.224Z,8.25
2022-12-06T16:39:04.472Z,11.93
2022-12-06T16:41:34.433Z,7.65
2022-12-06T16:44:02.535Z,9.30
2022-12-06T16:46:33.133Z,10.33
2022-12-06T16:49:36.651Z,9.63
2022-12-06T16:51:50.197Z,8.70
2022-12-06T16:54:40.936Z,7.20
2022-12-06T16:57:09.961Z,5.85
2022-12-06T16:59:37.801Z,6.35
2022-12-06T17:02:10.086Z,6.43
2022-12-06T17:04:42.709Z,6.68
2022-12-06T17:07:10.356Z,6.38
2022-12-06T17:09:39.360Z,6.40
2022-12-06T17:12:12.636Z,6.45
2022-12-06T17:14:40.712Z,5.90
2022-12-06T17:17:09.823Z,7.00
2022-12-06T17:19:37.664Z,8.13
2022-12-06T17:22:07.293Z,9.57
2022-12-06T17:24:35.008Z,9.00
2022-12-06T17:27:04.105Z,7.65
2022-12-06T17:29:31.791Z,6.93
2022-12-06T17:31:59.984Z,7.23
2022-12-06T17:34:27.720Z,8.23
2022-12-06T17:36:57.406Z,7.60
2022-12-06T17:39:25.090Z,7.57
2022-12-06T17:42:10.622Z,7.83
2022-12-06T17:44:40.015Z,16.92
2022-12-06T17:47:07.963Z,27.45
2022-12-06T17:49:36.199Z,34.67
2022-12-06T17:52:03.904Z,33.65
2022-12-06T17:54:31.769Z,26.10
2022-12-06T17:56:59.547Z,22.20
2022-12-06T17:59:29.418Z,18.20
2022-12-06T18:02:16.885Z,13.70
2022-12-06T18:04:46.141Z,15.25
2022-12-06T18:07:14.614Z,14.88
2022-12-06T18:09:42.399Z,18.20
2022-12-06T18:12:10.935Z,21.33
2022-12-06T18:14:38.729Z,14.82
2022-12-06T18:17:07.992Z,28.55
2022-12-06T18:19:36.198Z,30.13
2022-12-06T18:22:04.494Z,19.50
2022-12-06T18:24:35.886Z,23.07
2022-12-06T18:27:04.667Z,19.38
2022-12-06T18:29:32.651Z,13.87
2022-12-06T18:32:00.475Z,13.50
2022-12-06T18:34:29.716Z,12.32
2022-12-06T18:36:57.487Z,11.48
2022-12-06T18:39:25.404Z,11.75
2022-12-06T18:41:54.042Z,18.65
2022-12-06T18:44:22.392Z,11.95
2022-12-06T18:46:50.095Z,15.13
2022-12-06T18:49:17.947Z,13.68
2022-12-06T18:51:47.061Z,11.23
2022-12-06T18:54:14.964Z,11.30
2022-12-06T18:56:42.928Z,12.73
2022-12-06T18:59:12.242Z,13.38
2022-12-06T19:01:41.465Z,14.15
2022-12-06T19:04:11.465Z,12.63
2022-12-06T19:06:39.493Z,10.77
2022-12-06T19:09:13.367Z,10.73
2022-12-06T19:11:42.258Z,14.05
2022-12-06T19:14:10.191Z,20.25
2022-12-06T19:16:40.257Z,20.05
2022-12-06T19:19:15.878Z,24.10
2022-12-06T19:21:45.157Z,16.30
2022-12-06T19:24:16.558Z,36.63
2022-12-06T19:26:45.709Z,30.17
2022-12-06T19:29:14.064Z,17.00
2022-12-06T19:31:41.769Z,15.75
2022-12-06T19:34:15.165Z,16.10
2022-12-06T19:36:43.139Z,15.85
2022-12-06T19:39:11.518Z,16.58
2022-12-06T19:41:54.488Z,16.45
2022-12-06T19:44:22.767Z,16.48
2022-12-06T19:46:50.493Z,17.27
2022-12-06T19:49:19.915Z,17.63
2022-12-06T19:51:49.255Z,17.38
2022-12-06T19:54:19.403Z,16.83
2022-12-06T19:56:48.951Z,17.67
2022-12-06T19:59:16.759Z,17.17
2022-12-06T20:01:45.609Z,18.80
2022-12-06T20:04:15.869Z,17.63
2022-12-06T20:06:43.975Z,17.47
2022-12-06T20:09:11.667Z,17.37
2022-12-06T20:11:58.174Z,18.75
2022-12-06T20:14:27.867Z,17.97
2022-12-06T20:16:55.704Z,18.23
2022-12-06T20:19:24.226Z,19.20
2022-12-06T20:21:52.019Z,19.20
2022-12-06T20:24:22.512Z,18.30
2022-12-06T20:26:51.790Z,18.98
2022-12-06T20:29:19.738Z,18.58
2022-12-06T20:31:49.922Z,18.43
2022-12-06T20:34:18.012Z,17.90
2022-12-06T20:36:45.822Z,20.10
2022-12-06T20:39:20.871Z,22.85
2022-12-06T20:41:49.518Z,15.98
2022-12-06T20:44:17.626Z,15.20
2022-12-06T20:46:45.657Z,15.57
2022-12-06T20:49:16.163Z,13.55
2022-12-06T20:51:48.219Z,13.48
2022-12-06T20:54:20.313Z,12.70
2022-12-06T20:56:51.481Z,12.23
2022-12-06T20:59:19.565Z,11.90
2022-12-06T21:01:47.529Z,12.70
2022-12-06T21:04:16.959Z,11.30
2022-12-06T21:06:44.632Z,11.63
2022-12-06T21:09:12.496Z,11.70
2022-12-06T21:11:40.323Z,11.60
2022-12-06T21:14:08.107Z,12.07
2022-12-06T21:16:38.253Z,11.60
2022-12-06T21:19:07.154Z,12.05
2022-12-06T21:21:37.924Z,11.07
2022-12-06T21:24:07.752Z,10.55
2022-12-06T21:26:35.891Z,10.70
2022-12-06T21:29:03.853Z,10.90
2022-12-06T21:31:33.437Z,10.00
2022-12-06T21:34:01.484Z,10.05
2022-12-06T21:36:29.440Z,9.65
2022-12-06T21:38:58.968Z,9.50
2022-12-06T21:41:27.050Z,9.80
2022-12-06T21:43:54.858Z,10.10
2022-12-06T21:46:24.332Z,9.35
2022-12-06T21:48:52.781Z,9.43
2022-12-06T21:51:20.874Z,9.05
2022-12-06T21:53:48.972Z,8.82
2022-12-06T21:56:20.381Z,9.50
2022-12-06T21:58:48.457Z,9.13
2022-12-06T22:01:18.674Z,9.63
2022-12-06T22:03:48.627Z,9.73
2022-12-06T22:06:16.524Z,10.13
2022-12-06T22:08:45.450Z,9.23
2022-12-06T22:11:14.768Z,9.23
2022-12-06T22:13:44.293Z,8.68
2022-12-06T22:16:13.090Z,8.85
2022-12-06T22:18:45.596Z,8.75
2022-12-06T22:21:16.110Z,9.10
2022-12-06T22:23:44.411Z,8.82
2022-12-06T22:26:14.920Z,8.45
2022-12-06T22:28:44.322Z,7.47
2022-12-06T22:31:13.378Z,7.25
2022-12-06T22:33:41.146Z,7.38
2022-12-06T22:36:10.100Z,7.82
2022-12-06T22:38:38.226Z,7.20
2022-12-06T22:41:07.180Z,7.30
2022-12-06T22:43:35.208Z,6.70
2022-12-06T22:46:12.455Z,7.30
2022-12-06T22:48:41.279Z,6.85
2022-12-06T22:51:11.184Z,7.72
2022-12-06T22:53:38.912Z,7.65
2022-12-06T22:56:07.083Z,7.55
2022-12-06T22:58:34.936Z,7.47
2022-12-06T23:01:16.024Z,8.10
2022-12-06T23:03:45.144Z,7.88
2022-12-06T23:06:13.341Z,8.10
2022-12-06T23:08:41.145Z,8.50
2022-12-06T23:11:10.778Z,8.05
2022-12-06T23:13:38.727Z,7.07
2022-12-06T23:16:10.342Z,7.30
2022-12-06T23:18:38.183Z,7.05
2022-12-06T23:21:07.165Z,7.18
2022-12-06T23:23:35.221Z,7.35
2022-12-06T23:26:03.805Z,6.53
2022-12-06T23:28:31.618Z,6.80
2022-12-06T23:31:03.434Z,6.85
2022-12-06T23:33:32.890Z,6.07
2022-12-06T23:36:06.152Z,6.13
2022-12-06T23:38:33.887Z,6.15
2022-12-06T23:43:25.047Z,6.75
2022-12-06T23:45:59.136Z,7.78
2022-12-06T23:48:27.984Z,7.75
2022-12-06T23:51:02.538Z,6.78
2022-12-06T23:53:30.475Z,6.28
2022-12-06T23:56:00.025Z,5.82
2022-12-06T23:58:30.124Z,5.57
